sensor_id;sensor_type;location;lat;lon;timestamp;P1;durP1;ratioP1;P2;durP2;ratioP2
13475;SDS011;6810;63.824;20.288;2022-08-21T05:52:36;14.47;;;8.37;;
13475;SDS011;6810;63.824;20.288;2022-08-21T05:55:03;17.87;;;9.03;;
13475;SDS011;6810;63.824;20.288;2022-08-21T05:57:31;18.30;;;9.00;;
13475;SDS011;6810;63.824;20.288;2022-08-21T05:59:58;22.07;;;9.33;;
13475;SDS011;6810;63.824;20.288;2022-08-21T06:02:25;17.53;;;9.03;;
13475;SDS011;6810;63.824;20.288;2022-08-21T06:04:52;20.07;;;8.43;;
13475;SDS011;6810;63.824;20.288;2022-08-21T06:07:19;26.30;;;9.63;;
13475;SDS011;6810;63.824;20.288;2022-08-21T06:09:46;19.23;;;9.27;;
13475;SDS011;6810;63.824;20.288;2022-08-21T06:12:13;16.37;;;8.97;;
13475;SDS011;6810;63.824;20.288;2022-08-21T06:14:40;16.73;;;8.87;;
13475;SDS011;6810;63.824;20.288;2022-08-21T06:17:28;23.10;;;9.47;;
13475;SDS011;6810;63.824;20.288;2022-08-21T06:20:14;21.80;;;8.43;;
13475;SDS011;6810;63.824;20.288;2022-08-21T06:23:02;14.97;;;7.87;;
13475;SDS011;6810;63.824;20.288;2022-08-21T06:25:58;17.97;;;7.90;;
13475;SDS011;6810;63.824;20.288;2022-08-21T06:28:46;19.80;;;9.07;;
13475;SDS011;6810;63.824;20.288;2022-08-21T06:31:33;15.43;;;7.67;;
13475;SDS011;6810;63.824;20.288;2022-08-21T06:34:21;17.40;;;8.27;;
13475;SDS011;6810;63.824;20.288;2022-08-21T06:37:08;15.03;;;7.50;;
13475;SDS011;6810;63.824;20.288;2022-08-21T06:39:55;14.60;;;7.37;;
13475;SDS011;6810;63.824;20.288;2022-08-21T06:42:53;15.07;;;7.70;;
13475;SDS011;6810;63.824;20.288;2022-08-21T06:45:40;14.80;;;7.20;;
13475;SDS011;6810;63.824;20.288;2022-08-21T06:48:28;16.17;;;7.63;;
13475;SDS011;6810;63.824;20.288;2022-08-21T06:51:15;14.07;;;6.93;;
13475;SDS011;6810;63.824;20.288;2022-08-21T06:54:02;11.90;;;7.00;;
13475;SDS011;6810;63.824;20.288;2022-08-21T06:56:49;12.27;;;6.77;;
13475;SDS011;6810;63.824;20.288;2022-08-21T06:59:36;12.10;;;6.30;;
13475;SDS011;6810;63.824;20.288;2022-08-21T07:02:23;13.23;;;6.23;;
13475;SDS011;6810;63.824;20.288;2022-08-21T07:05:10;6.47;;;4.97;;
13475;SDS011;6810;63.824;20.288;2022-08-21T07:07:57;8.67;;;5.07;;
13475;SDS011;6810;63.824;20.288;2022-08-21T07:10:45;8.67;;;4.60;;
13475;SDS011;6810;63.824;20.288;2022-08-21T07:13:33;8.47;;;4.47;;
13475;SDS011;6810;63.824;20.288;2022-08-21T07:16:20;7.93;;;4.20;;
13475;SDS011;6810;63.824;20.288;2022-08-21T07:19:08;6.67;;;3.80;;
13475;SDS011;6810;63.824;20.288;2022-08-21T07:21:57;5.97;;;3.47;;
13475;SDS011;6810;63.824;20.288;2022-08-21T07:24:46;6.63;;;3.80;;
13475;SDS011;6810;63.824;20.288;2022-08-21T07:27:33;6.83;;;3.57;;
13475;SDS011;6810;63.824;20.288;2022-08-21T07:30:20;6.90;;;4.33;;
13475;SDS011;6810;63.824;20.288;2022-08-21T07:33:07;8.97;;;5.37;;
13475;SDS011;6810;63.824;20.288;2022-08-21T07:35:54;9.83;;;5.60;;
13475;SDS011;6810;63.824;20.288;2022-08-21T07:38:41;7.57;;;5.03;;
13475;SDS011;6810;63.824;20.288;2022-08-21T07:41:28;7.97;;;4.87;;
13475;SDS011;6810;63.824;20.288;2022-08-21T07:44:16;6.03;;;4.17;;
13475;SDS011;6810;63.824;20.288;2022-08-21T07:47:03;7.03;;;4.17;;
13475;SDS011;6810;63.824;20.288;2022-08-21T07:49:31;6.60;;;4.03;;
13475;SDS011;6810;63.824;20.288;2022-08-21T07:51:58;8.37;;;3.77;;
13475;SDS011;6810;63.824;20.288;2022-08-21T07:54:26;9.07;;;4.60;;
13475;SDS011;6810;63.824;20.288;2022-08-21T07:57:00;9.07;;;5.03;;
13475;SDS011;6810;63.824;20.288;2022-08-21T07:59:28;10.13;;;5.80;;
13475;SDS011;6810;63.824;20.288;2022-08-21T08:01:55;15.33;;;7.73;;
13475;SDS011;6810;63.824;20.288;2022-08-21T08:04:23;17.30;;;7.83;;
13475;SDS011;6810;63.824;20.288;2022-08-21T08:06:52;18.17;;;8.83;;
13475;SDS011;6810;63.824;20.288;2022-08-21T08:09:19;15.87;;;8.23;;
13475;SDS011;6810;63.824;20.288;2022-08-21T08:11:46;15.93;;;8.30;;
13475;SDS011;6810;63.824;20.288;2022-08-21T08:14:33;16.80;;;8.10;;
13475;SDS011;6810;63.824;20.288;2022-08-21T08:17:20;16.80;;;7.80;;
13475;SDS011;6810;63.824;20.288;2022-08-21T08:20:08;18.67;;;8.03;;
13475;SDS011;6810;63.824;20.288;2022-08-21T08:22:57;15.43;;;7.77;;
13475;SDS011;6810;63.824;20.288;2022-08-21T08:25:44;14.43;;;7.30;;
13475;SDS011;6810;63.824;20.288;2022-08-21T08:28:31;19.07;;;8.43;;
13475;SDS011;6810;63.824;20.288;2022-08-21T08:31:19;17.47;;;7.90;;
13475;SDS011;6810;63.824;20.288;2022-08-21T08:34:06;14.63;;;7.90;;
13475;SDS011;6810;63.824;20.288;2022-08-21T08:36:53;18.90;;;8.23;;
13475;SDS011;6810;63.824;20.288;2022-08-21T08:39:40;16.57;;;8.20;;
13475;SDS011;6810;63.824;20.288;2022-08-21T08:42:34;14.27;;;7.40;;
13475;SDS011;6810;63.824;20.288;2022-08-21T08:45:22;17.93;;;7.83;;
13475;SDS011;6810;63.824;20.288;2022-08-21T08:48:12;16.63;;;7.90;;
13475;SDS011;6810;63.824;20.288;2022-08-21T08:51:01;19.97;;;8.20;;
13475;SDS011;6810;63.824;20.288;2022-08-21T08:53:32;13.00;;;7.53;;
13475;SDS011;6810;63.824;20.288;2022-08-21T08:56:06;14.03;;;6.97;;
13475;SDS011;6810;63.824;20.288;2022-08-21T08:58:36;14.70;;;6.90;;
13475;SDS011;6810;63.824;20.288;2022-08-21T09:01:08;16.03;;;6.93;;
13475;SDS011;6810;63.824;20.288;2022-08-21T09:03:44;14.43;;;6.33;;
13475;SDS011;6810;63.824;20.288;2022-08-21T09:11:38;15.00;;;7.03;;
13475;SDS011;6810;63.824;20.288;2022-08-21T09:20:28;11.87;;;6.30;;
13475;SDS011;6810;63.824;20.288;2022-08-21T09:25:50;8.20;;;4.60;;
13475;SDS011;6810;63.824;20.288;2022-08-21T09:28:19;11.83;;;5.77;;
13475;SDS011;6810;63.824;20.288;2022-08-21T09:30:46;13.10;;;7.20;;
13475;SDS011;6810;63.824;20.288;2022-08-21T09:33:13;12.00;;;6.67;;
13475;SDS011;6810;63.824;20.288;2022-08-21T09:35:50;10.13;;;5.77;;
13475;SDS011;6810;63.824;20.288;2022-08-21T09:38:35;13.27;;;5.43;;
13475;SDS011;6810;63.824;20.288;2022-08-21T09:41:05;7.67;;;4.17;;
13475;SDS011;6810;63.824;20.288;2022-08-21T09:43:35;5.87;;;3.77;;
13475;SDS011;6810;63.824;20.288;2022-08-21T09:48:43;3.43;;;2.70;;
13475;SDS011;6810;63.824;20.288;2022-08-21T09:51:15;6.63;;;3.33;;
13475;SDS011;6810;63.824;20.288;2022-08-21T10:02:07;15.50;;;7.10;;
13475;SDS011;6810;63.824;20.288;2022-08-21T10:04:50;20.87;;;8.87;;
13475;SDS011;6810;63.824;20.288;2022-08-21T10:07:20;22.80;;;8.83;;
13475;SDS011;6810;63.824;20.288;2022-08-21T10:18:38;23.47;;;10.00;;
13475;SDS011;6810;63.824;20.288;2022-08-21T10:21:20;20.17;;;9.43;;
13475;SDS011;6810;63.824;20.288;2022-08-21T10:24:19;18.23;;;9.43;;
13475;SDS011;6810;63.824;20.288;2022-08-21T10:27:11;20.30;;;9.07;;
13475;SDS011;6810;63.824;20.288;2022-08-21T10:35:14;18.93;;;8.40;;
13475;SDS011;6810;63.824;20.288;2022-08-21T10:37:57;17.37;;;8.47;;
13475;SDS011;6810;63.824;20.288;2022-08-21T10:40:35;17.03;;;8.57;;
13475;SDS011;6810;63.824;20.288;2022-08-21T10:43:27;16.10;;;8.13;;
13475;SDS011;6810;63.824;20.288;2022-08-21T10:46:37;14.33;;;8.13;;
13475;SDS011;6810;63.824;20.288;2022-08-21T10:50:03;18.20;;;8.93;;
13475;SDS011;6810;63.824;20.288;2022-08-21T10:52:56;14.33;;;8.57;;
13475;SDS011;6810;63.824;20.288;2022-08-21T10:55:59;14.83;;;7.57;;
13475;SDS011;6810;63.824;20.288;2022-08-21T11:05:17;12.50;;;7.67;;
13475;SDS011;6810;63.824;20.288;2022-08-21T11:11:25;12.10;;;7.00;;
13475;SDS011;6810;63.824;20.288;2022-08-21T11:14:41;12.47;;;6.70;;
13475;SDS011;6810;63.824;20.288;2022-08-21T11:21:11;15.00;;;6.47;;
13475;SDS011;6810;63.824;20.288;2022-08-21T11:24:22;10.43;;;6.07;;
13475;SDS011;6810;63.824;20.288;2022-08-21T11:30:07;10.83;;;6.40;;
13475;SDS011;6810;63.824;20.288;2022-08-21T11:36:08;9.47;;;5.93;;
13475;SDS011;6810;63.824;20.288;2022-08-21T11:38:57;11.43;;;6.70;;
13475;SDS011;6810;63.824;20.288;2022-08-21T11:48:27;9.23;;;6.10;;
13475;SDS011;6810;63.824;20.288;2022-08-21T11:54:52;9.80;;;5.83;;
13475;SDS011;6810;63.824;20.288;2022-08-21T11:57:52;8.20;;;5.10;;
13475;SDS011;6810;63.824;20.288;2022-08-21T12:01:12;6.73;;;4.97;;
13475;SDS011;6810;63.824;20.288;2022-08-21T12:04:08;7.60;;;5.13;;
13475;SDS011;6810;63.824;20.288;2022-08-21T12:07:16;9.90;;;4.63;;
13475;SDS011;6810;63.824;20.288;2022-08-21T12:10:18;9.27;;;5.70;;
13475;SDS011;6810;63.824;20.288;2022-08-21T12:13:22;5.80;;;4.63;;
13475;SDS011;6810;63.824;20.288;2022-08-21T12:16:14;7.10;;;4.67;;
13475;SDS011;6810;63.824;20.288;2022-08-21T12:22:09;7.00;;;4.97;;
13475;SDS011;6810;63.824;20.288;2022-08-21T12:24:39;7.43;;;4.87;;
13475;SDS011;6810;63.824;20.288;2022-08-21T12:27:30;8.10;;;4.90;;
13475;SDS011;6810;63.824;20.288;2022-08-21T12:30:37;7.30;;;4.67;;
13475;SDS011;6810;63.824;20.288;2022-08-21T12:33:31;8.17;;;4.40;;
13475;SDS011;6810;63.824;20.288;2022-08-21T12:36:39;5.90;;;4.30;;
13475;SDS011;6810;63.824;20.288;2022-08-21T12:39:30;7.83;;;4.47;;
13475;SDS011;6810;63.824;20.288;2022-08-21T12:42:05;6.73;;;4.00;;
13475;SDS011;6810;63.824;20.288;2022-08-21T12:44:55;7.03;;;4.17;;
13475;SDS011;6810;63.824;20.288;2022-08-21T12:47:32;7.13;;;4.60;;
13475;SDS011;6810;63.824;20.288;2022-08-21T12:50:08;7.50;;;4.27;;
13475;SDS011;6810;63.824;20.288;2022-08-21T12:55:55;5.37;;;4.07;;
13475;SDS011;6810;63.824;20.288;2022-08-21T12:58:28;4.30;;;3.70;;
13475;SDS011;6810;63.824;20.288;2022-08-21T13:01:05;6.43;;;4.17;;
13475;SDS011;6810;63.824;20.288;2022-08-21T13:03:40;4.50;;;3.50;;
13475;SDS011;6810;63.824;20.288;2022-08-21T13:06:12;4.90;;;3.40;;
13475;SDS011;6810;63.824;20.288;2022-08-21T13:08:43;6.07;;;3.40;;
13475;SDS011;6810;63.824;20.288;2022-08-21T13:11:15;6.77;;;3.50;;
13475;SDS011;6810;63.824;20.288;2022-08-21T13:14:00;5.80;;;3.50;;
13475;SDS011;6810;63.824;20.288;2022-08-21T13:16:30;4.07;;;3.20;;
13475;SDS011;6810;63.824;20.288;2022-08-21T13:19:03;6.17;;;3.03;;
13475;SDS011;6810;63.824;20.288;2022-08-21T13:21:34;4.07;;;3.00;;
13475;SDS011;6810;63.824;20.288;2022-08-21T13:27:02;6.50;;;2.90;;
13475;SDS011;6810;63.824;20.288;2022-08-21T13:29:31;6.50;;;2.97;;
13475;SDS011;6810;63.824;20.288;2022-08-21T13:32:04;5.80;;;2.53;;
13475;SDS011;6810;63.824;20.288;2022-08-21T13:34:34;6.73;;;2.30;;
13475;SDS011;6810;63.824;20.288;2022-08-21T13:37:07;6.07;;;2.90;;
13475;SDS011;6810;63.824;20.288;2022-08-21T13:39:37;5.77;;;2.50;;
13475;SDS011;6810;63.824;20.288;2022-08-21T13:42:08;4.77;;;2.67;;
13475;SDS011;6810;63.824;20.288;2022-08-21T13:44:42;4.20;;;2.30;;
13475;SDS011;6810;63.824;20.288;2022-08-21T13:47:12;4.07;;;2.10;;
13475;SDS011;6810;63.824;20.288;2022-08-21T13:49:45;4.27;;;2.27;;
13475;SDS011;6810;63.824;20.288;2022-08-21T13:52:15;2.87;;;2.27;;
13475;SDS011;6810;63.824;20.288;2022-08-21T13:54:57;5.43;;;2.40;;
13475;SDS011;6810;63.824;20.288;2022-08-21T13:57:38;5.33;;;2.10;;
13475;SDS011;6810;63.824;20.288;2022-08-21T14:00:48;5.60;;;2.10;;
13475;SDS011;6810;63.824;20.288;2022-08-21T14:03:02;4.10;;;1.87;;
13475;SDS011;6810;63.824;20.288;2022-08-21T14:05:37;3.70;;;2.10;;
13475;SDS011;6810;63.824;20.288;2022-08-21T14:08:14;3.47;;;2.17;;
13475;SDS011;6810;63.824;20.288;2022-08-21T14:10:56;3.07;;;2.37;;
13475;SDS011;6810;63.824;20.288;2022-08-21T14:13:33;4.67;;;2.00;;
13475;SDS011;6810;63.824;20.288;2022-08-21T14:16:11;3.77;;;2.10;;
13475;SDS011;6810;63.824;20.288;2022-08-21T14:21:31;3.80;;;2.17;;
13475;SDS011;6810;63.824;20.288;2022-08-21T14:24:02;5.90;;;2.17;;
13475;SDS011;6810;63.824;20.288;2022-08-21T14:26:34;5.43;;;2.20;;
13475;SDS011;6810;63.824;20.288;2022-08-21T14:29:11;5.00;;;2.30;;
13475;SDS011;6810;63.824;20.288;2022-08-21T14:31:41;3.57;;;2.07;;
13475;SDS011;6810;63.824;20.288;2022-08-21T14:34:10;4.30;;;2.20;;
13475;SDS011;6810;63.824;20.288;2022-08-21T14:36:46;2.73;;;1.97;;
13475;SDS011;6810;63.824;20.288;2022-08-21T14:39:13;4.10;;;2.30;;
13475;SDS011;6810;63.824;20.288;2022-08-21T14:41:40;4.97;;;1.93;;
13475;SDS011;6810;63.824;20.288;2022-08-21T14:44:09;4.30;;;1.97;;
13475;SDS011;6810;63.824;20.288;2022-08-21T14:46:37;4.27;;;2.10;;
13475;SDS011;6810;63.824;20.288;2022-08-21T14:49:22;4.00;;;1.90;;
13475;SDS011;6810;63.824;20.288;2022-08-21T14:51:55;7.27;;;2.30;;
13475;SDS011;6810;63.824;20.288;2022-08-21T14:54:25;5.10;;;2.03;;
13475;SDS011;6810;63.824;20.288;2022-08-21T14:57:01;5.33;;;2.23;;
13475;SDS011;6810;63.824;20.288;2022-08-21T14:59:32;4.10;;;2.17;;
13475;SDS011;6810;63.824;20.288;2022-08-21T15:02:23;3.87;;;2.20;;
13475;SDS011;6810;63.824;20.288;2022-08-21T15:05:10;4.53;;;2.20;;
13475;SDS011;6810;63.824;20.288;2022-08-21T15:07:49;5.23;;;2.70;;
13475;SDS011;6810;63.824;20.288;2022-08-21T15:10:36;6.60;;;2.27;;
13475;SDS011;6810;63.824;20.288;2022-08-21T15:13:37;7.27;;;2.13;;
13475;SDS011;6810;63.824;20.288;2022-08-21T15:16:24;3.83;;;1.90;;
13475;SDS011;6810;63.824;20.288;2022-08-21T15:19:12;6.03;;;2.07;;
13475;SDS011;6810;63.824;20.288;2022-08-21T15:21:59;5.70;;;2.20;;
13475;SDS011;6810;63.824;20.288;2022-08-21T15:24:54;5.83;;;2.23;;
13475;SDS011;6810;63.824;20.288;2022-08-21T15:27:40;6.97;;;2.10;;
13475;SDS011;6810;63.824;20.288;2022-08-21T15:30:28;8.30;;;2.10;;
13475;SDS011;6810;63.824;20.288;2022-08-21T15:33:05;5.03;;;2.23;;
13475;SDS011;6810;63.824;20.288;2022-08-21T15:35:52;5.17;;;1.90;;
13475;SDS011;6810;63.824;20.288;2022-08-21T15:38:39;4.37;;;1.87;;
13475;SDS011;6810;63.824;20.288;2022-08-21T15:41:26;7.23;;;2.20;;
13475;SDS011;6810;63.824;20.288;2022-08-21T15:44:13;5.67;;;2.20;;
13475;SDS011;6810;63.824;20.288;2022-08-21T15:47:01;6.60;;;2.43;;
13475;SDS011;6810;63.824;20.288;2022-08-21T15:49:48;5.00;;;2.10;;
13475;SDS011;6810;63.824;20.288;2022-08-21T15:52:35;6.03;;;2.27;;
13475;SDS011;6810;63.824;20.288;2022-08-21T15:55:03;9.07;;;2.87;;
13475;SDS011;6810;63.824;20.288;2022-08-21T15:57:32;3.47;;;2.17;;
13475;SDS011;6810;63.824;20.288;2022-08-21T16:00:04;6.90;;;2.47;;
13475;SDS011;6810;63.824;20.288;2022-08-21T16:02:42;2.20;;;2.00;;
13475;SDS011;6810;63.824;20.288;2022-08-21T16:05:11;8.27;;;2.53;;
13475;SDS011;6810;63.824;20.288;2022-08-21T16:07:39;3.77;;;2.30;;
13475;SDS011;6810;63.824;20.288;2022-08-21T16:10:07;5.80;;;2.50;;
13475;SDS011;6810;63.824;20.288;2022-08-21T16:12:37;7.70;;;2.73;;
13475;SDS011;6810;63.824;20.288;2022-08-21T16:15:08;4.93;;;2.20;;
13475;SDS011;6810;63.824;20.288;2022-08-21T16:17:46;5.97;;;2.43;;
13475;SDS011;6810;63.824;20.288;2022-08-21T16:20:20;5.70;;;2.40;;
13475;SDS011;6810;63.824;20.288;2022-08-21T16:22:51;5.93;;;2.50;;
13475;SDS011;6810;63.824;20.288;2022-08-21T16:25:20;4.77;;;2.40;;
13475;SDS011;6810;63.824;20.288;2022-08-21T16:27:49;7.23;;;2.67;;
13475;SDS011;6810;63.824;20.288;2022-08-21T16:30:24;5.13;;;2.37;;
13475;SDS011;6810;63.824;20.288;2022-08-21T16:32:52;4.60;;;2.60;;
13475;SDS011;6810;63.824;20.288;2022-08-21T16:35:20;6.40;;;2.50;;
13475;SDS011;6810;63.824;20.288;2022-08-21T16:37:48;4.37;;;2.13;;
13475;SDS011;6810;63.824;20.288;2022-08-21T16:40:19;5.10;;;2.50;;
13475;SDS011;6810;63.824;20.288;2022-08-21T16:42:49;3.67;;;2.50;;
13475;SDS011;6810;63.824;20.288;2022-08-21T16:45:18;7.33;;;2.53;;
13475;SDS011;6810;63.824;20.288;2022-08-21T16:47:46;5.70;;;2.80;;
13475;SDS011;6810;63.824;20.288;2022-08-21T16:50:15;7.23;;;2.50;;
13475;SDS011;6810;63.824;20.288;2022-08-21T16:52:48;5.70;;;2.27;;
13475;SDS011;6810;63.824;20.288;2022-08-21T16:55:15;5.03;;;2.13;;
13475;SDS011;6810;63.824;20.288;2022-08-21T16:57:43;6.13;;;2.20;;
13475;SDS011;6810;63.824;20.288;2022-08-21T17:00:10;3.90;;;2.50;;
13475;SDS011;6810;63.824;20.288;2022-08-21T17:02:41;5.87;;;2.37;;
13475;SDS011;6810;63.824;20.288;2022-08-21T17:05:11;7.33;;;2.43;;
13475;SDS011;6810;63.824;20.288;2022-08-21T17:07:40;5.10;;;2.10;;
13475;SDS011;6810;63.824;20.288;2022-08-21T17:10:09;7.53;;;2.17;;
13475;SDS011;6810;63.824;20.288;2022-08-21T17:12:39;4.47;;;1.93;;
13475;SDS011;6810;63.824;20.288;2022-08-21T17:15:12;2.90;;;1.50;;
13475;SDS011;6810;63.824;20.288;2022-08-21T17:17:47;4.70;;;1.53;;
13475;SDS011;6810;63.824;20.288;2022-08-21T17:20:15;3.97;;;1.73;;
13475;SDS011;6810;63.824;20.288;2022-08-21T17:22:43;5.10;;;1.53;;
13475;SDS011;6810;63.824;20.288;2022-08-21T17:25:10;2.50;;;1.57;;
13475;SDS011;6810;63.824;20.288;2022-08-21T17:27:37;3.27;;;1.60;;
13475;SDS011;6810;63.824;20.288;2022-08-21T17:30:05;2.37;;;1.20;;
13475;SDS011;6810;63.824;20.288;2022-08-21T17:32:33;1.87;;;1.40;;
13475;SDS011;6810;63.824;20.288;2022-08-21T17:35:00;3.80;;;1.20;;
13475;SDS011;6810;63.824;20.288;2022-08-21T17:37:28;2.40;;;1.20;;
13475;SDS011;6810;63.824;20.288;2022-08-21T17:39:55;2.43;;;1.17;;
13475;SDS011;6810;63.824;20.288;2022-08-21T17:42:23;1.97;;;1.07;;
13475;SDS011;6810;63.824;20.288;2022-08-21T17:44:51;3.50;;;1.10;;
13475;SDS011;6810;63.824;20.288;2022-08-21T17:47:38;1.10;;;1.00;;
13475;SDS011;6810;63.824;20.288;2022-08-21T17:50:25;1.57;;;0.90;;
13475;SDS011;6810;63.824;20.288;2022-08-21T17:53:12;3.90;;;1.57;;
13475;SDS011;6810;63.824;20.288;2022-08-21T17:55:59;2.53;;;1.07;;
13475;SDS011;6810;63.824;20.288;2022-08-21T17:58:47;2.30;;;1.03;;
13475;SDS011;6810;63.824;20.288;2022-08-21T18:01:37;3.53;;;1.07;;
13475;SDS011;6810;63.824;20.288;2022-08-21T18:04:27;3.27;;;1.10;;
13475;SDS011;6810;63.824;20.288;2022-08-21T18:07:19;1.20;;;0.90;;
13475;SDS011;6810;63.824;20.288;2022-08-21T18:10:08;2.07;;;1.00;;
13475;SDS011;6810;63.824;20.288;2022-08-21T18:12:57;2.50;;;1.07;;
13475;SDS011;6810;63.824;20.288;2022-08-21T18:15:48;1.83;;;0.93;;
13475;SDS011;6810;63.824;20.288;2022-08-21T18:18:39;1.90;;;1.10;;
13475;SDS011;6810;63.824;20.288;2022-08-21T18:21:28;1.13;;;1.00;;
13475;SDS011;6810;63.824;20.288;2022-08-21T18:24:16;4.63;;;0.90;;
13475;SDS011;6810;63.824;20.288;2022-08-21T18:27:04;3.13;;;1.10;;
13475;SDS011;6810;63.824;20.288;2022-08-21T18:29:56;3.43;;;0.93;;
13475;SDS011;6810;63.824;20.288;2022-08-21T18:32:44;1.97;;;1.10;;
13475;SDS011;6810;63.824;20.288;2022-08-21T18:35:32;1.63;;;0.90;;
13475;SDS011;6810;63.824;20.288;2022-08-21T18:38:20;2.07;;;1.20;;
13475;SDS011;6810;63.824;20.288;2022-08-21T18:41:07;3.33;;;1.00;;
13475;SDS011;6810;63.824;20.288;2022-08-21T18:43:54;3.00;;;1.40;;
13475;SDS011;6810;63.824;20.288;2022-08-21T18:46:42;3.40;;;1.10;;
13475;SDS011;6810;63.824;20.288;2022-08-21T18:49:34;2.27;;;1.13;;
13475;SDS011;6810;63.824;20.288;2022-08-21T18:52:21;4.50;;;1.00;;
13475;SDS011;6810;63.824;20.288;2022-08-21T18:55:19;2.80;;;0.93;;
13475;SDS011;6810;63.824;20.288;2022-08-21T18:58:07;2.73;;;0.97;;
13475;SDS011;6810;63.824;20.288;2022-08-21T19:00:55;4.50;;;1.00;;
13475;SDS011;6810;63.824;20.288;2022-08-21T19:03:43;3.00;;;1.00;;
13475;SDS011;6810;63.824;20.288;2022-08-21T19:06:30;4.23;;;1.20;;
13475;SDS011;6810;63.824;20.288;2022-08-21T19:09:18;1.90;;;0.87;;
13475;SDS011;6810;63.824;20.288;2022-08-21T19:12:05;1.73;;;0.90;;
13475;SDS011;6810;63.824;20.288;2022-08-21T19:14:55;2.80;;;1.20;;
13475;SDS011;6810;63.824;20.288;2022-08-21T19:17:43;2.13;;;1.00;;
13475;SDS011;6810;63.824;20.288;2022-08-21T19:20:33;1.97;;;1.03;;
13475;SDS011;6810;63.824;20.288;2022-08-21T19:23:23;2.67;;;1.40;;
13475;SDS011;6810;63.824;20.288;2022-08-21T19:26:10;1.80;;;1.03;;
13475;SDS011;6810;63.824;20.288;2022-08-21T19:28:58;2.57;;;0.80;;
13475;SDS011;6810;63.824;20.288;2022-08-21T19:32:04;1.23;;;1.07;;
13475;SDS011;6810;63.824;20.288;2022-08-21T19:34:52;1.67;;;1.00;;
13475;SDS011;6810;63.824;20.288;2022-08-21T19:37:40;1.67;;;1.00;;
13475;SDS011;6810;63.824;20.288;2022-08-21T19:40:27;2.40;;;1.20;;
13475;SDS011;6810;63.824;20.288;2022-08-21T19:43:14;2.33;;;1.23;;
13475;SDS011;6810;63.824;20.288;2022-08-21T19:46:02;3.23;;;1.10;;
13475;SDS011;6810;63.824;20.288;2022-08-21T19:48:50;1.83;;;1.20;;
13475;SDS011;6810;63.824;20.288;2022-08-21T19:51:40;0.97;;;0.93;;
13475;SDS011;6810;63.824;20.288;2022-08-21T19:54:38;3.30;;;1.53;;
13475;SDS011;6810;63.824;20.288;2022-08-21T19:57:25;2.87;;;1.43;;
13475;SDS011;6810;63.824;20.288;2022-08-21T20:00:13;1.63;;;1.00;;
13475;SDS011;6810;63.824;20.288;2022-08-21T20:03:01;3.20;;;1.33;;
13475;SDS011;6810;63.824;20.288;2022-08-21T20:05:48;1.67;;;1.30;;
13475;SDS011;6810;63.824;20.288;2022-08-21T20:08:35;2.30;;;1.27;;
13475;SDS011;6810;63.824;20.288;2022-08-21T20:11:29;2.23;;;1.30;;
13475;SDS011;6810;63.824;20.288;2022-08-21T20:14:25;2.00;;;1.20;;
13475;SDS011;6810;63.824;20.288;2022-08-21T20:17:16;3.83;;;1.37;;
13475;SDS011;6810;63.824;20.288;2022-08-21T20:20:04;3.77;;;1.63;;
13475;SDS011;6810;63.824;20.288;2022-08-21T20:22:57;1.80;;;1.20;;
13475;SDS011;6810;63.824;20.288;2022-08-21T20:25:55;2.77;;;1.40;;
13475;SDS011;6810;63.824;20.288;2022-08-21T20:28:44;2.27;;;1.50;;
13475;SDS011;6810;63.824;20.288;2022-08-21T20:31:32;2.77;;;1.23;;
13475;SDS011;6810;63.824;20.288;2022-08-21T20:34:21;2.40;;;1.40;;
13475;SDS011;6810;63.824;20.288;2022-08-21T20:37:28;2.50;;;1.40;;
13475;SDS011;6810;63.824;20.288;2022-08-21T20:40:24;2.90;;;1.30;;
13475;SDS011;6810;63.824;20.288;2022-08-21T20:43:12;1.63;;;1.20;;
13475;SDS011;6810;63.824;20.288;2022-08-21T20:46:00;3.90;;;1.37;;
13475;SDS011;6810;63.824;20.288;2022-08-21T20:48:48;5.07;;;1.43;;
13475;SDS011;6810;63.824;20.288;2022-08-21T20:51:39;2.20;;;1.43;;
13475;SDS011;6810;63.824;20.288;2022-08-21T20:54:36;2.47;;;1.37;;
13475;SDS011;6810;63.824;20.288;2022-08-21T20:58:09;2.07;;;1.43;;
13475;SDS011;6810;63.824;20.288;2022-08-21T21:01:04;2.97;;;1.40;;
13475;SDS011;6810;63.824;20.288;2022-08-21T21:03:36;3.70;;;1.70;;
13475;SDS011;6810;63.824;20.288;2022-08-21T21:06:13;3.67;;;1.50;;
13475;SDS011;6810;63.824;20.288;2022-08-21T21:08:46;2.77;;;1.60;;
13475;SDS011;6810;63.824;20.288;2022-08-21T21:11:34;3.87;;;1.60;;
13475;SDS011;6810;63.824;20.288;2022-08-21T21:14:09;3.13;;;1.50;;
13475;SDS011;6810;63.824;20.288;2022-08-21T21:19:27;3.10;;;1.50;;
13475;SDS011;6810;63.824;20.288;2022-08-21T21:22:09;6.23;;;2.30;;
13475;SDS011;6810;63.824;20.288;2022-08-21T21:24:45;4.50;;;1.73;;
13475;SDS011;6810;63.824;20.288;2022-08-21T21:27:23;4.73;;;2.17;;
13475;SDS011;6810;63.824;20.288;2022-08-21T21:30:03;3.27;;;2.07;;
13475;SDS011;6810;63.824;20.288;2022-08-21T21:32:30;2.67;;;2.13;;
13475;SDS011;6810;63.824;20.288;2022-08-21T21:34:59;2.73;;;2.00;;
13475;SDS011;6810;63.824;20.288;2022-08-21T21:40:51;3.43;;;2.07;;
13475;SDS011;6810;63.824;20.288;2022-08-21T21:43:22;5.83;;;2.13;;
13475;SDS011;6810;63.824;20.288;2022-08-21T21:48:51;4.77;;;2.43;;
13475;SDS011;6810;63.824;20.288;2022-08-21T21:55:45;5.77;;;3.07;;
13475;SDS011;6810;63.824;20.288;2022-08-21T22:01:09;4.40;;;3.00;;
13475;SDS011;6810;63.824;20.288;2022-08-21T22:06:16;4.03;;;2.70;;
13475;SDS011;6810;63.824;20.288;2022-08-21T22:11:48;6.23;;;2.80;;
13475;SDS011;6810;63.824;20.288;2022-08-21T22:14:28;9.10;;;2.83;;
13475;SDS011;6810;63.824;20.288;2022-08-21T22:17:06;6.87;;;2.83;;
13475;SDS011;6810;63.824;20.288;2022-08-21T22:20:06;7.73;;;2.90;;
13475;SDS011;6810;63.824;20.288;2022-08-21T22:22:39;4.50;;;2.50;;
13475;SDS011;6810;63.824;20.288;2022-08-21T22:25:16;7.73;;;3.00;;
13475;SDS011;6810;63.824;20.288;2022-08-21T22:27:48;5.10;;;2.47;;
13475;SDS011;6810;63.824;20.288;2022-08-21T22:33:15;5.50;;;2.53;;
13475;SDS011;6810;63.824;20.288;2022-08-21T22:35:46;8.47;;;2.97;;
13475;SDS011;6810;63.824;20.288;2022-08-21T22:41:08;3.47;;;2.53;;
13475;SDS011;6810;63.824;20.288;2022-08-21T22:43:48;4.50;;;2.60;;
13475;SDS011;6810;63.824;20.288;2022-08-21T22:47:04;4.60;;;2.57;;
13475;SDS011;6810;63.824;20.288;2022-08-21T22:49:23;3.30;;;2.43;;
13475;SDS011;6810;63.824;20.288;2022-08-21T22:54:47;5.83;;;2.60;;
13475;SDS011;6810;63.824;20.288;2022-08-21T22:57:23;3.60;;;2.40;;
13475;SDS011;6810;63.824;20.288;2022-08-21T23:02:43;5.03;;;2.60;;
13475;SDS011;6810;63.824;20.288;2022-08-21T23:05:24;5.20;;;2.10;;
13475;SDS011;6810;63.824;20.288;2022-08-21T23:08:00;6.73;;;2.60;;
13475;SDS011;6810;63.824;20.288;2022-08-21T23:11:11;4.83;;;2.27;;
13475;SDS011;6810;63.824;20.288;2022-08-21T23:13:43;2.93;;;2.47;;
13475;SDS011;6810;63.824;20.288;2022-08-21T23:19:02;5.97;;;2.90;;
13475;SDS011;6810;63.824;20.288;2022-08-21T23:26:15;4.07;;;2.40;;
13475;SDS011;6810;63.824;20.288;2022-08-21T23:52:04;4.67;;;1.80;;
13475;SDS011;6810;63.824;20.288;2022-08-21T23:57:31;5.70;;;2.00;;
